sensor_id;sensor_type;location;lat;lon;timestamp;P1;durP1;ratioP1;P2;durP2;ratioP2
45296;SDS011;31040;51.622;10.420;2023-12-28T00:00:17;5.57;;;4.57;;
45296;SDS011;31040;51.622;10.420;2023-12-28T00:02:46;7.05;;;4.65;;
45296;SDS011;31040;51.622;10.420;2023-12-28T00:05:13;6.55;;;3.97;;
45296;SDS011;31040;51.622;10.420;2023-12-28T00:07:41;5.75;;;4.28;;
45296;SDS011;31040;51.622;10.420;2023-12-28T00:10:09;6.00;;;4.00;;
45296;SDS011;31040;51.622;10.420;2023-12-28T00:12:37;7.03;;;4.38;;
45296;SDS011;31040;51.622;10.420;2023-12-28T00:15:04;5.82;;;4.72;;
45296;SDS011;31040;51.622;10.420;2023-12-28T00:17:32;7.55;;;3.88;;
45296;SDS011;31040;51.622;10.420;2023-12-28T00:19:59;5.18;;;3.95;;
45296;SDS011;31040;51.622;10.420;2023-12-28T00:22:27;5.00;;;3.97;;
45296;SDS011;31040;51.622;10.420;2023-12-28T00:24:55;5.15;;;3.38;;
45296;SDS011;31040;51.622;10.420;2023-12-28T00:27:22;8.15;;;5.68;;
45296;SDS011;31040;51.622;10.420;2023-12-28T00:29:50;4.85;;;3.30;;
45296;SDS011;31040;51.622;10.420;2023-12-28T00:32:17;4.32;;;3.42;;
45296;SDS011;31040;51.622;10.420;2023-12-28T00:34:46;5.47;;;3.50;;
45296;SDS011;31040;51.622;10.420;2023-12-28T00:37:13;4.88;;;2.85;;
45296;SDS011;31040;51.622;10.420;2023-12-28T00:39:41;5.63;;;4.05;;
45296;SDS011;31040;51.622;10.420;2023-12-28T00:42:08;5.70;;;4.15;;
45296;SDS011;31040;51.622;10.420;2023-12-28T00:44:36;5.90;;;4.22;;
45296;SDS011;31040;51.622;10.420;2023-12-28T00:47:03;5.55;;;4.05;;
45296;SDS011;31040;51.622;10.420;2023-12-28T00:49:33;5.75;;;4.13;;
45296;SDS011;31040;51.622;10.420;2023-12-28T00:52:00;6.05;;;4.15;;
45296;SDS011;31040;51.622;10.420;2023-12-28T00:54:28;5.10;;;4.05;;
45296;SDS011;31040;51.622;10.420;2023-12-28T00:56:55;6.43;;;4.50;;
45296;SDS011;31040;51.622;10.420;2023-12-28T00:59:23;5.15;;;4.18;;
45296;SDS011;31040;51.622;10.420;2023-12-28T01:01:50;6.43;;;4.15;;
45296;SDS011;31040;51.622;10.420;2023-12-28T01:04:17;4.63;;;3.97;;
45296;SDS011;31040;51.622;10.420;2023-12-28T01:06:45;5.05;;;3.22;;
45296;SDS011;31040;51.622;10.420;2023-12-28T01:09:13;4.63;;;3.90;;
45296;SDS011;31040;51.622;10.420;2023-12-28T01:11:40;4.13;;;3.22;;
45296;SDS011;31040;51.622;10.420;2023-12-28T01:14:08;4.28;;;3.10;;
45296;SDS011;31040;51.622;10.420;2023-12-28T01:16:36;4.97;;;3.60;;
45296;SDS011;31040;51.622;10.420;2023-12-28T01:19:05;5.72;;;3.13;;
45296;SDS011;31040;51.622;10.420;2023-12-28T01:21:33;5.68;;;3.50;;
45296;SDS011;31040;51.622;10.420;2023-12-28T01:24:01;4.90;;;3.88;;
45296;SDS011;31040;51.622;10.420;2023-12-28T01:26:28;6.85;;;4.50;;
45296;SDS011;31040;51.622;10.420;2023-12-28T01:28:56;5.60;;;3.65;;
45296;SDS011;31040;51.622;10.420;2023-12-28T01:31:23;5.40;;;3.40;;
45296;SDS011;31040;51.622;10.420;2023-12-28T01:33:51;5.07;;;3.72;;
45296;SDS011;31040;51.622;10.420;2023-12-28T01:36:19;4.85;;;3.28;;
45296;SDS011;31040;51.622;10.420;2023-12-28T01:38:47;5.10;;;3.13;;
45296;SDS011;31040;51.622;10.420;2023-12-28T01:41:14;5.20;;;2.95;;
45296;SDS011;31040;51.622;10.420;2023-12-28T01:43:42;5.18;;;3.20;;
45296;SDS011;31040;51.622;10.420;2023-12-28T01:46:16;3.78;;;3.00;;
45296;SDS011;31040;51.622;10.420;2023-12-28T01:48:44;3.58;;;2.90;;
45296;SDS011;31040;51.622;10.420;2023-12-28T01:51:12;3.67;;;2.63;;
45296;SDS011;31040;51.622;10.420;2023-12-28T01:53:44;5.45;;;3.17;;
45296;SDS011;31040;51.622;10.420;2023-12-28T01:56:12;5.45;;;2.75;;
45296;SDS011;31040;51.622;10.420;2023-12-28T01:58:40;2.88;;;2.25;;
45296;SDS011;31040;51.622;10.420;2023-12-28T02:01:09;2.22;;;2.03;;
45296;SDS011;31040;51.622;10.420;2023-12-28T02:03:37;5.55;;;2.45;;
45296;SDS011;31040;51.622;10.420;2023-12-28T02:06:06;2.38;;;2.00;;
45296;SDS011;31040;51.622;10.420;2023-12-28T02:08:34;6.10;;;2.50;;
45296;SDS011;31040;51.622;10.420;2023-12-28T02:11:02;2.90;;;2.30;;
45296;SDS011;31040;51.622;10.420;2023-12-28T02:13:29;3.22;;;1.88;;
45296;SDS011;31040;51.622;10.420;2023-12-28T02:16:02;4.15;;;2.53;;
45296;SDS011;31040;51.622;10.420;2023-12-28T02:18:33;3.15;;;2.00;;
45296;SDS011;31040;51.622;10.420;2023-12-28T02:21:02;1.85;;;1.50;;
45296;SDS011;31040;51.622;10.420;2023-12-28T02:23:31;1.83;;;1.52;;
45296;SDS011;31040;51.622;10.420;2023-12-28T02:25:59;1.38;;;1.27;;
45296;SDS011;31040;51.622;10.420;2023-12-28T02:28:26;2.63;;;1.33;;
45296;SDS011;31040;51.622;10.420;2023-12-28T02:30:54;2.20;;;1.58;;
45296;SDS011;31040;51.622;10.420;2023-12-28T02:33:26;2.05;;;1.60;;
45296;SDS011;31040;51.622;10.420;2023-12-28T02:36:07;3.03;;;1.63;;
45296;SDS011;31040;51.622;10.420;2023-12-28T02:38:36;2.50;;;1.80;;
45296;SDS011;31040;51.622;10.420;2023-12-28T02:41:04;3.05;;;1.33;;
45296;SDS011;31040;51.622;10.420;2023-12-28T02:43:32;2.78;;;1.52;;
45296;SDS011;31040;51.622;10.420;2023-12-28T02:46:00;2.80;;;1.40;;
45296;SDS011;31040;51.622;10.420;2023-12-28T02:48:29;5.93;;;2.10;;
45296;SDS011;31040;51.622;10.420;2023-12-28T02:50:57;2.47;;;1.50;;
45296;SDS011;31040;51.622;10.420;2023-12-28T02:53:24;2.72;;;1.40;;
45296;SDS011;31040;51.622;10.420;2023-12-28T02:55:52;2.75;;;1.55;;
45296;SDS011;31040;51.622;10.420;2023-12-28T02:58:19;3.63;;;2.00;;
45296;SDS011;31040;51.622;10.420;2023-12-28T03:00:47;2.20;;;1.42;;
45296;SDS011;31040;51.622;10.420;2023-12-28T03:03:18;1.67;;;1.42;;
45296;SDS011;31040;51.622;10.420;2023-12-28T03:05:46;6.55;;;3.25;;
45296;SDS011;31040;51.622;10.420;2023-12-28T03:08:13;4.70;;;1.60;;
45296;SDS011;31040;51.622;10.420;2023-12-28T03:10:40;3.17;;;1.98;;
45296;SDS011;31040;51.622;10.420;2023-12-28T03:13:08;2.25;;;1.75;;
45296;SDS011;31040;51.622;10.420;2023-12-28T03:15:35;2.63;;;1.58;;
45296;SDS011;31040;51.622;10.420;2023-12-28T03:18:03;3.47;;;2.13;;
45296;SDS011;31040;51.622;10.420;2023-12-28T03:20:33;2.92;;;1.60;;
45296;SDS011;31040;51.622;10.420;2023-12-28T03:23:01;2.58;;;1.85;;
45296;SDS011;31040;51.622;10.420;2023-12-28T03:25:28;3.97;;;1.85;;
45296;SDS011;31040;51.622;10.420;2023-12-28T03:27:56;2.15;;;1.73;;
45296;SDS011;31040;51.622;10.420;2023-12-28T03:30:24;3.42;;;1.88;;
45296;SDS011;31040;51.622;10.420;2023-12-28T03:32:51;2.53;;;2.13;;
45296;SDS011;31040;51.622;10.420;2023-12-28T03:35:19;4.20;;;1.88;;
45296;SDS011;31040;51.622;10.420;2023-12-28T03:37:46;2.60;;;1.80;;
45296;SDS011;31040;51.622;10.420;2023-12-28T03:40:14;3.67;;;2.05;;
45296;SDS011;31040;51.622;10.420;2023-12-28T03:42:45;2.33;;;1.80;;
45296;SDS011;31040;51.622;10.420;2023-12-28T03:45:12;2.85;;;1.85;;
45296;SDS011;31040;51.622;10.420;2023-12-28T03:47:40;2.92;;;2.00;;
45296;SDS011;31040;51.622;10.420;2023-12-28T03:50:08;2.47;;;1.60;;
45296;SDS011;31040;51.622;10.420;2023-12-28T03:52:35;2.15;;;1.88;;
45296;SDS011;31040;51.622;10.420;2023-12-28T03:55:03;2.28;;;1.98;;
45296;SDS011;31040;51.622;10.420;2023-12-28T03:57:30;2.08;;;1.58;;
45296;SDS011;31040;51.622;10.420;2023-12-28T03:59:58;1.98;;;1.60;;
45296;SDS011;31040;51.622;10.420;2023-12-28T04:02:26;3.55;;;2.03;;
45296;SDS011;31040;51.622;10.420;2023-12-28T04:04:57;2.70;;;2.00;;
45296;SDS011;31040;51.622;10.420;2023-12-28T04:07:25;3.30;;;1.80;;
45296;SDS011;31040;51.622;10.420;2023-12-28T04:09:53;2.47;;;1.85;;
45296;SDS011;31040;51.622;10.420;2023-12-28T04:12:21;4.20;;;2.00;;
45296;SDS011;31040;51.622;10.420;2023-12-28T04:14:48;2.58;;;2.10;;
45296;SDS011;31040;51.622;10.420;2023-12-28T04:17:16;2.05;;;1.70;;
45296;SDS011;31040;51.622;10.420;2023-12-28T04:19:44;3.28;;;2.20;;
45296;SDS011;31040;51.622;10.420;2023-12-28T04:22:11;3.95;;;2.00;;
45296;SDS011;31040;51.622;10.420;2023-12-28T04:24:38;1.83;;;1.63;;
45296;SDS011;31040;51.622;10.420;2023-12-28T04:27:07;3.05;;;1.88;;
45296;SDS011;31040;51.622;10.420;2023-12-28T04:29:35;2.15;;;1.80;;
45296;SDS011;31040;51.622;10.420;2023-12-28T04:32:03;2.55;;;1.80;;
45296;SDS011;31040;51.622;10.420;2023-12-28T04:34:30;3.58;;;1.95;;
45296;SDS011;31040;51.622;10.420;2023-12-28T04:36:57;2.25;;;1.80;;
45296;SDS011;31040;51.622;10.420;2023-12-28T04:39:25;2.13;;;1.92;;
45296;SDS011;31040;51.622;10.420;2023-12-28T04:41:52;1.73;;;1.63;;
45296;SDS011;31040;51.622;10.420;2023-12-28T04:44:21;1.60;;;1.50;;
45296;SDS011;31040;51.622;10.420;2023-12-28T04:46:48;4.10;;;1.90;;
45296;SDS011;31040;51.622;10.420;2023-12-28T04:49:16;2.58;;;1.65;;
45296;SDS011;31040;51.622;10.420;2023-12-28T04:51:43;3.58;;;1.92;;
45296;SDS011;31040;51.622;10.420;2023-12-28T04:54:11;2.55;;;1.83;;
45296;SDS011;31040;51.622;10.420;2023-12-28T04:56:42;1.90;;;1.55;;
45296;SDS011;31040;51.622;10.420;2023-12-28T04:59:09;4.18;;;1.73;;
45296;SDS011;31040;51.622;10.420;2023-12-28T05:01:40;1.80;;;1.60;;
45296;SDS011;31040;51.622;10.420;2023-12-28T05:04:08;2.10;;;1.60;;
45296;SDS011;31040;51.622;10.420;2023-12-28T05:06:40;1.60;;;1.50;;
45296;SDS011;31040;51.622;10.420;2023-12-28T05:09:07;2.20;;;2.10;;
45296;SDS011;31040;51.622;10.420;2023-12-28T05:11:35;2.17;;;1.63;;
45296;SDS011;31040;51.622;10.420;2023-12-28T05:14:02;3.33;;;2.22;;
45296;SDS011;31040;51.622;10.420;2023-12-28T05:16:30;2.97;;;1.60;;
45296;SDS011;31040;51.622;10.420;2023-12-28T05:18:57;2.47;;;1.98;;
45296;SDS011;31040;51.622;10.420;2023-12-28T05:21:25;2.67;;;2.03;;
45296;SDS011;31040;51.622;10.420;2023-12-28T05:23:52;3.33;;;2.35;;
45296;SDS011;31040;51.622;10.420;2023-12-28T05:26:20;2.13;;;1.92;;
45296;SDS011;31040;51.622;10.420;2023-12-28T05:28:47;2.65;;;1.77;;
45296;SDS011;31040;51.622;10.420;2023-12-28T05:31:15;3.72;;;1.88;;
45296;SDS011;31040;51.622;10.420;2023-12-28T05:33:42;2.80;;;2.17;;
45296;SDS011;31040;51.622;10.420;2023-12-28T05:36:10;2.67;;;1.92;;
45296;SDS011;31040;51.622;10.420;2023-12-28T05:38:39;2.05;;;1.85;;
45296;SDS011;31040;51.622;10.420;2023-12-28T05:41:09;1.92;;;1.80;;
45296;SDS011;31040;51.622;10.420;2023-12-28T05:43:37;2.63;;;1.98;;
45296;SDS011;31040;51.622;10.420;2023-12-28T05:46:04;2.67;;;2.03;;
45296;SDS011;31040;51.622;10.420;2023-12-28T05:48:32;2.22;;;1.92;;
45296;SDS011;31040;51.622;10.420;2023-12-28T05:51:00;2.42;;;2.10;;
45296;SDS011;31040;51.622;10.420;2023-12-28T05:53:27;3.33;;;2.00;;
45296;SDS011;31040;51.622;10.420;2023-12-28T05:55:55;2.10;;;1.90;;
45296;SDS011;31040;51.622;10.420;2023-12-28T05:58:23;2.30;;;1.83;;
45296;SDS011;31040;51.622;10.420;2023-12-28T06:00:50;4.10;;;2.05;;
45296;SDS011;31040;51.622;10.420;2023-12-28T06:03:18;3.85;;;2.10;;
45296;SDS011;31040;51.622;10.420;2023-12-28T06:05:45;2.65;;;1.55;;
45296;SDS011;31040;51.622;10.420;2023-12-28T06:08:13;2.25;;;1.85;;
45296;SDS011;31040;51.622;10.420;2023-12-28T06:10:40;2.47;;;2.00;;
45296;SDS011;31040;51.622;10.420;2023-12-28T06:13:08;4.60;;;2.28;;
45296;SDS011;31040;51.622;10.420;2023-12-28T06:15:35;2.42;;;1.98;;
45296;SDS011;31040;51.622;10.420;2023-12-28T06:18:03;2.53;;;2.13;;
45296;SDS011;31040;51.622;10.420;2023-12-28T06:20:31;2.95;;;2.15;;
45296;SDS011;31040;51.622;10.420;2023-12-28T06:22:59;2.33;;;1.98;;
45296;SDS011;31040;51.622;10.420;2023-12-28T06:25:26;2.10;;;1.90;;
45296;SDS011;31040;51.622;10.420;2023-12-28T06:27:54;2.42;;;2.10;;
45296;SDS011;31040;51.622;10.420;2023-12-28T06:30:21;2.83;;;2.25;;
45296;SDS011;31040;51.622;10.420;2023-12-28T06:32:49;3.70;;;2.42;;
45296;SDS011;31040;51.622;10.420;2023-12-28T06:35:16;2.67;;;2.13;;
45296;SDS011;31040;51.622;10.420;2023-12-28T06:37:44;4.53;;;2.25;;
45296;SDS011;31040;51.622;10.420;2023-12-28T06:40:11;2.95;;;2.60;;
45296;SDS011;31040;51.622;10.420;2023-12-28T06:42:39;3.35;;;2.05;;
45296;SDS011;31040;51.622;10.420;2023-12-28T06:45:09;3.70;;;2.15;;
45296;SDS011;31040;51.622;10.420;2023-12-28T06:47:37;2.38;;;1.90;;
45296;SDS011;31040;51.622;10.420;2023-12-28T06:50:05;2.88;;;1.85;;
45296;SDS011;31040;51.622;10.420;2023-12-28T06:52:33;2.67;;;2.03;;
45296;SDS011;31040;51.622;10.420;2023-12-28T06:55:00;2.30;;;2.10;;
45296;SDS011;31040;51.622;10.420;2023-12-28T06:57:28;3.42;;;2.55;;
45296;SDS011;31040;51.622;10.420;2023-12-28T06:59:56;2.47;;;1.70;;
45296;SDS011;31040;51.622;10.420;2023-12-28T07:02:26;3.33;;;2.10;;
45296;SDS011;31040;51.622;10.420;2023-12-28T07:04:53;2.63;;;2.20;;
45296;SDS011;31040;51.622;10.420;2023-12-28T07:07:21;2.17;;;2.00;;
45296;SDS011;31040;51.622;10.420;2023-12-28T07:09:48;3.40;;;1.80;;
45296;SDS011;31040;51.622;10.420;2023-12-28T07:12:16;2.38;;;2.17;;
45296;SDS011;31040;51.622;10.420;2023-12-28T07:14:46;4.57;;;2.75;;
45296;SDS011;31040;51.622;10.420;2023-12-28T07:17:14;3.13;;;2.33;;
45296;SDS011;31040;51.622;10.420;2023-12-28T07:19:43;3.92;;;2.60;;
45296;SDS011;31040;51.622;10.420;2023-12-28T07:22:11;4.20;;;2.60;;
45296;SDS011;31040;51.622;10.420;2023-12-28T07:24:39;2.63;;;2.10;;
45296;SDS011;31040;51.622;10.420;2023-12-28T07:27:08;4.93;;;2.15;;
45296;SDS011;31040;51.622;10.420;2023-12-28T07:29:35;2.55;;;1.90;;
45296;SDS011;31040;51.622;10.420;2023-12-28T07:32:03;2.38;;;2.10;;
45296;SDS011;31040;51.622;10.420;2023-12-28T07:34:30;5.30;;;2.53;;
45296;SDS011;31040;51.622;10.420;2023-12-28T07:36:58;2.60;;;2.08;;
45296;SDS011;31040;51.622;10.420;2023-12-28T07:39:25;2.95;;;2.20;;
45296;SDS011;31040;51.622;10.420;2023-12-28T07:41:53;5.35;;;2.95;;
45296;SDS011;31040;51.622;10.420;2023-12-28T07:44:20;4.45;;;2.40;;
45296;SDS011;31040;51.622;10.420;2023-12-28T07:46:48;3.75;;;2.00;;
45296;SDS011;31040;51.622;10.420;2023-12-28T07:49:15;4.40;;;1.80;;
45296;SDS011;31040;51.622;10.420;2023-12-28T07:51:43;2.72;;;2.00;;
45296;SDS011;31040;51.622;10.420;2023-12-28T07:54:10;1.75;;;1.48;;
45296;SDS011;31040;51.622;10.420;2023-12-28T07:56:38;3.75;;;2.00;;
45296;SDS011;31040;51.622;10.420;2023-12-28T07:59:05;3.75;;;2.10;;
45296;SDS011;31040;51.622;10.420;2023-12-28T08:01:35;3.38;;;2.08;;
45296;SDS011;31040;51.622;10.420;2023-12-28T08:04:03;2.72;;;2.35;;
45296;SDS011;31040;51.622;10.420;2023-12-28T08:06:30;3.00;;;2.65;;
45296;SDS011;31040;51.622;10.420;2023-12-28T08:08:59;3.95;;;2.20;;
45296;SDS011;31040;51.622;10.420;2023-12-28T08:11:29;2.85;;;1.95;;
45296;SDS011;31040;51.622;10.420;2023-12-28T08:13:57;2.72;;;2.30;;
45296;SDS011;31040;51.622;10.420;2023-12-28T08:16:24;4.43;;;2.47;;
45296;SDS011;31040;51.622;10.420;2023-12-28T08:18:52;3.20;;;2.08;;
45296;SDS011;31040;51.622;10.420;2023-12-28T08:21:20;4.18;;;2.83;;
45296;SDS011;31040;51.622;10.420;2023-12-28T08:23:47;6.18;;;2.88;;
45296;SDS011;31040;51.622;10.420;2023-12-28T08:26:15;5.13;;;2.78;;
45296;SDS011;31040;51.622;10.420;2023-12-28T08:28:42;5.82;;;3.30;;
45296;SDS011;31040;51.622;10.420;2023-12-28T08:31:10;5.30;;;3.40;;
45296;SDS011;31040;51.622;10.420;2023-12-28T08:33:37;6.93;;;4.28;;
45296;SDS011;31040;51.622;10.420;2023-12-28T08:36:09;8.57;;;3.78;;
45296;SDS011;31040;51.622;10.420;2023-12-28T08:38:37;6.80;;;3.83;;
45296;SDS011;31040;51.622;10.420;2023-12-28T08:41:05;3.45;;;3.03;;
45296;SDS011;31040;51.622;10.420;2023-12-28T08:43:35;5.93;;;3.35;;
45296;SDS011;31040;51.622;10.420;2023-12-28T08:46:03;5.85;;;3.53;;
45296;SDS011;31040;51.622;10.420;2023-12-28T08:48:31;8.02;;;3.20;;
45296;SDS011;31040;51.622;10.420;2023-12-28T08:50:58;6.30;;;3.03;;
45296;SDS011;31040;51.622;10.420;2023-12-28T08:53:26;3.20;;;2.50;;
45296;SDS011;31040;51.622;10.420;2023-12-28T08:55:53;4.28;;;2.78;;
45296;SDS011;31040;51.622;10.420;2023-12-28T08:58:20;2.75;;;2.05;;
45296;SDS011;31040;51.622;10.420;2023-12-28T09:00:48;4.55;;;2.47;;
45296;SDS011;31040;51.622;10.420;2023-12-28T09:03:16;4.43;;;2.28;;
45296;SDS011;31040;51.622;10.420;2023-12-28T09:05:44;5.28;;;2.50;;
45296;SDS011;31040;51.622;10.420;2023-12-28T09:08:11;2.35;;;2.15;;
45296;SDS011;31040;51.622;10.420;2023-12-28T09:10:38;4.40;;;2.30;;
45296;SDS011;31040;51.622;10.420;2023-12-28T09:13:14;4.28;;;2.25;;
45296;SDS011;31040;51.622;10.420;2023-12-28T09:15:42;6.57;;;2.50;;
45296;SDS011;31040;51.622;10.420;2023-12-28T09:18:10;3.70;;;2.40;;
45296;SDS011;31040;51.622;10.420;2023-12-28T09:20:38;3.58;;;2.10;;
45296;SDS011;31040;51.622;10.420;2023-12-28T09:23:05;2.72;;;2.35;;
45296;SDS011;31040;51.622;10.420;2023-12-28T09:25:33;2.42;;;1.98;;
45296;SDS011;31040;51.622;10.420;2023-12-28T09:28:01;2.72;;;2.30;;
45296;SDS011;31040;51.622;10.420;2023-12-28T09:30:32;3.15;;;2.13;;
45296;SDS011;31040;51.622;10.420;2023-12-28T09:33:00;2.20;;;1.92;;
45296;SDS011;31040;51.622;10.420;2023-12-28T09:35:28;10.07;;;2.50;;
45296;SDS011;31040;51.622;10.420;2023-12-28T09:37:55;3.22;;;1.92;;
45296;SDS011;31040;51.622;10.420;2023-12-28T09:40:24;3.78;;;2.10;;
45296;SDS011;31040;51.622;10.420;2023-12-28T09:45:35;4.05;;;2.20;;
45296;SDS011;31040;51.622;10.420;2023-12-28T09:48:04;1.85;;;1.75;;
45296;SDS011;31040;51.622;10.420;2023-12-28T09:50:33;3.70;;;2.20;;
45296;SDS011;31040;51.622;10.420;2023-12-28T09:53:01;2.63;;;2.10;;
45296;SDS011;31040;51.622;10.420;2023-12-28T09:55:29;2.67;;;2.08;;
45296;SDS011;31040;51.622;10.420;2023-12-28T09:57:56;4.80;;;2.08;;
45296;SDS011;31040;51.622;10.420;2023-12-28T10:00:25;2.40;;;2.20;;
45296;SDS011;31040;51.622;10.420;2023-12-28T10:02:52;2.42;;;2.05;;
45296;SDS011;31040;51.622;10.420;2023-12-28T10:05:20;2.28;;;2.08;;
45296;SDS011;31040;51.622;10.420;2023-12-28T10:07:47;3.45;;;2.22;;
45296;SDS011;31040;51.622;10.420;2023-12-28T10:10:17;3.05;;;2.20;;
45296;SDS011;31040;51.622;10.420;2023-12-28T10:12:46;3.13;;;2.35;;
45296;SDS011;31040;51.622;10.420;2023-12-28T10:15:14;2.03;;;1.83;;
45296;SDS011;31040;51.622;10.420;2023-12-28T10:17:41;2.05;;;1.70;;
45296;SDS011;31040;51.622;10.420;2023-12-28T10:20:09;7.75;;;1.83;;
45296;SDS011;31040;51.622;10.420;2023-12-28T10:22:36;5.38;;;2.03;;
45296;SDS011;31040;51.622;10.420;2023-12-28T10:25:04;2.28;;;1.42;;
45296;SDS011;31040;51.622;10.420;2023-12-28T10:27:32;2.85;;;1.60;;
45296;SDS011;31040;51.622;10.420;2023-12-28T10:30:00;3.58;;;1.80;;
45296;SDS011;31040;51.622;10.420;2023-12-28T10:32:28;2.28;;;1.92;;
45296;SDS011;31040;51.622;10.420;2023-12-28T10:34:55;2.60;;;1.50;;
45296;SDS011;31040;51.622;10.420;2023-12-28T10:37:23;2.30;;;1.55;;
45296;SDS011;31040;51.622;10.420;2023-12-28T10:39:53;3.72;;;1.63;;
45296;SDS011;31040;51.622;10.420;2023-12-28T10:42:28;2.53;;;1.80;;
45296;SDS011;31040;51.622;10.420;2023-12-28T10:45:01;3.83;;;1.63;;
45296;SDS011;31040;51.622;10.420;2023-12-28T10:47:31;1.83;;;1.65;;
45296;SDS011;31040;51.622;10.420;2023-12-28T10:50:00;2.72;;;2.00;;
45296;SDS011;31040;51.622;10.420;2023-12-28T10:52:29;2.65;;;1.52;;
45296;SDS011;31040;51.622;10.420;2023-12-28T10:55:01;2.92;;;1.83;;
45296;SDS011;31040;51.622;10.420;2023-12-28T10:57:52;2.30;;;1.98;;
45296;SDS011;31040;51.622;10.420;2023-12-28T11:00:22;2.42;;;1.55;;
45296;SDS011;31040;51.622;10.420;2023-12-28T11:02:53;4.07;;;1.75;;
45296;SDS011;31040;51.622;10.420;2023-12-28T11:05:23;3.35;;;1.60;;
45296;SDS011;31040;51.622;10.420;2023-12-28T11:07:51;2.13;;;1.50;;
45296;SDS011;31040;51.622;10.420;2023-12-28T11:10:24;2.53;;;1.63;;
45296;SDS011;31040;51.622;10.420;2023-12-28T11:12:53;4.13;;;2.22;;
45296;SDS011;31040;51.622;10.420;2023-12-28T11:15:20;3.78;;;1.55;;
45296;SDS011;31040;51.622;10.420;2023-12-28T11:17:50;2.30;;;1.67;;
45296;SDS011;31040;51.622;10.420;2023-12-28T11:20:18;4.13;;;1.50;;
45296;SDS011;31040;51.622;10.420;2023-12-28T11:22:45;1.70;;;1.40;;
45296;SDS011;31040;51.622;10.420;2023-12-28T11:25:14;2.25;;;1.50;;
45296;SDS011;31040;51.622;10.420;2023-12-28T11:27:41;3.63;;;1.80;;
45296;SDS011;31040;51.622;10.420;2023-12-28T11:30:09;4.22;;;1.60;;
45296;SDS011;31040;51.622;10.420;2023-12-28T11:32:40;2.33;;;1.35;;
45296;SDS011;31040;51.622;10.420;2023-12-28T11:35:13;3.63;;;2.05;;
45296;SDS011;31040;51.622;10.420;2023-12-28T11:37:42;2.38;;;1.42;;
45296;SDS011;31040;51.622;10.420;2023-12-28T11:40:12;3.85;;;1.42;;
45296;SDS011;31040;51.622;10.420;2023-12-28T11:42:51;2.33;;;1.50;;
45296;SDS011;31040;51.622;10.420;2023-12-28T11:45:19;2.17;;;1.60;;
45296;SDS011;31040;51.622;10.420;2023-12-28T11:47:58;4.47;;;1.48;;
45296;SDS011;31040;51.622;10.420;2023-12-28T11:50:27;3.65;;;2.17;;
45296;SDS011;31040;51.622;10.420;2023-12-28T11:52:55;2.92;;;1.50;;
45296;SDS011;31040;51.622;10.420;2023-12-28T11:55:22;1.83;;;1.33;;
45296;SDS011;31040;51.622;10.420;2023-12-28T11:57:50;4.32;;;1.40;;
45296;SDS011;31040;51.622;10.420;2023-12-28T12:00:18;5.95;;;2.38;;
45296;SDS011;31040;51.622;10.420;2023-12-28T12:02:47;3.85;;;1.60;;
45296;SDS011;31040;51.622;10.420;2023-12-28T12:05:14;2.28;;;1.40;;
45296;SDS011;31040;51.622;10.420;2023-12-28T12:07:42;2.00;;;1.40;;
45296;SDS011;31040;51.622;10.420;2023-12-28T12:10:14;2.30;;;1.20;;
45296;SDS011;31040;51.622;10.420;2023-12-28T12:12:42;2.47;;;1.35;;
45296;SDS011;31040;51.622;10.420;2023-12-28T12:15:10;1.85;;;1.50;;
45296;SDS011;31040;51.622;10.420;2023-12-28T12:17:38;4.45;;;1.63;;
45296;SDS011;31040;51.622;10.420;2023-12-28T12:20:05;2.50;;;1.50;;
45296;SDS011;31040;51.622;10.420;2023-12-28T12:22:33;3.50;;;1.58;;
45296;SDS011;31040;51.622;10.420;2023-12-28T12:25:02;2.00;;;1.30;;
45296;SDS011;31040;51.622;10.420;2023-12-28T12:27:30;4.82;;;1.48;;
45296;SDS011;31040;51.622;10.420;2023-12-28T12:29:58;3.30;;;1.20;;
45296;SDS011;31040;51.622;10.420;2023-12-28T12:32:25;2.47;;;1.55;;
45296;SDS011;31040;51.622;10.420;2023-12-28T12:34:54;2.78;;;1.48;;
45296;SDS011;31040;51.622;10.420;2023-12-28T12:37:21;4.38;;;1.50;;
45296;SDS011;31040;51.622;10.420;2023-12-28T12:39:49;3.22;;;1.50;;
45296;SDS011;31040;51.622;10.420;2023-12-28T12:42:17;3.05;;;1.50;;
45296;SDS011;31040;51.622;10.420;2023-12-28T12:44:45;4.03;;;1.55;;
45296;SDS011;31040;51.622;10.420;2023-12-28T12:47:12;4.78;;;1.60;;
45296;SDS011;31040;51.622;10.420;2023-12-28T12:49:40;3.80;;;1.67;;
45296;SDS011;31040;51.622;10.420;2023-12-28T12:52:09;2.22;;;1.40;;
45296;SDS011;31040;51.622;10.420;2023-12-28T12:54:37;1.95;;;1.55;;
45296;SDS011;31040;51.622;10.420;2023-12-28T12:57:05;2.58;;;1.50;;
45296;SDS011;31040;51.622;10.420;2023-12-28T12:59:32;3.00;;;1.40;;
45296;SDS011;31040;51.622;10.420;2023-12-28T13:02:00;1.95;;;1.13;;
45296;SDS011;31040;51.622;10.420;2023-12-28T13:04:27;2.15;;;1.58;;
45296;SDS011;31040;51.622;10.420;2023-12-28T13:06:55;2.95;;;1.20;;
45296;SDS011;31040;51.622;10.420;2023-12-28T13:09:22;2.03;;;1.08;;
45296;SDS011;31040;51.622;10.420;2023-12-28T13:11:50;2.22;;;1.27;;
45296;SDS011;31040;51.622;10.420;2023-12-28T13:14:18;2.85;;;1.40;;
45296;SDS011;31040;51.622;10.420;2023-12-28T13:16:47;4.00;;;1.23;;
45296;SDS011;31040;51.622;10.420;2023-12-28T13:19:23;2.53;;;1.60;;
45296;SDS011;31040;51.622;10.420;2023-12-28T13:21:50;2.88;;;1.23;;
45296;SDS011;31040;51.622;10.420;2023-12-28T13:24:18;2.60;;;1.13;;
45296;SDS011;31040;51.622;10.420;2023-12-28T13:26:45;3.80;;;1.50;;
45296;SDS011;31040;51.622;10.420;2023-12-28T13:29:13;3.20;;;1.95;;
45296;SDS011;31040;51.622;10.420;2023-12-28T13:31:40;2.97;;;1.65;;
45296;SDS011;31040;51.622;10.420;2023-12-28T13:34:08;2.47;;;1.50;;
45296;SDS011;31040;51.622;10.420;2023-12-28T13:36:35;2.45;;;1.27;;
45296;SDS011;31040;51.622;10.420;2023-12-28T13:39:03;2.50;;;1.45;;
45296;SDS011;31040;51.622;10.420;2023-12-28T13:41:31;2.00;;;1.27;;
45296;SDS011;31040;51.622;10.420;2023-12-28T13:43:59;3.40;;;2.00;;
45296;SDS011;31040;51.622;10.420;2023-12-28T13:46:30;3.20;;;1.23;;
45296;SDS011;31040;51.622;10.420;2023-12-28T13:48:58;2.00;;;1.35;;
45296;SDS011;31040;51.622;10.420;2023-12-28T13:51:26;3.03;;;1.42;;
45296;SDS011;31040;51.622;10.420;2023-12-28T13:53:53;2.20;;;2.00;;
45296;SDS011;31040;51.622;10.420;2023-12-28T13:56:20;2.60;;;1.40;;
45296;SDS011;31040;51.622;10.420;2023-12-28T13:58:48;2.15;;;1.60;;
45296;SDS011;31040;51.622;10.420;2023-12-28T14:01:15;2.30;;;1.65;;
45296;SDS011;31040;51.622;10.420;2023-12-28T14:03:43;3.35;;;1.65;;
45296;SDS011;31040;51.622;10.420;2023-12-28T14:06:12;1.90;;;1.25;;
45296;SDS011;31040;51.622;10.420;2023-12-28T14:08:40;1.45;;;1.30;;
45296;SDS011;31040;51.622;10.420;2023-12-28T14:11:07;2.80;;;1.40;;
45296;SDS011;31040;51.622;10.420;2023-12-28T14:13:36;3.35;;;1.35;;
45296;SDS011;31040;51.622;10.420;2023-12-28T14:16:03;2.70;;;1.40;;
45296;SDS011;31040;51.622;10.420;2023-12-28T14:18:31;5.40;;;3.58;;
45296;SDS011;31040;51.622;10.420;2023-12-28T14:20:58;2.55;;;1.45;;
45296;SDS011;31040;51.622;10.420;2023-12-28T14:23:26;1.42;;;1.20;;
45296;SDS011;31040;51.622;10.420;2023-12-28T14:25:53;8.00;;;2.10;;
45296;SDS011;31040;51.622;10.420;2023-12-28T14:28:21;2.33;;;1.60;;
45296;SDS011;31040;51.622;10.420;2023-12-28T14:30:53;4.75;;;2.75;;
45296;SDS011;31040;51.622;10.420;2023-12-28T14:33:20;4.57;;;1.50;;
45296;SDS011;31040;51.622;10.420;2023-12-28T14:35:49;2.80;;;1.50;;
45296;SDS011;31040;51.622;10.420;2023-12-28T14:38:16;2.13;;;1.40;;
45296;SDS011;31040;51.622;10.420;2023-12-28T14:40:46;3.13;;;1.50;;